createdAt,value
2023-05-02T00:00:51.893Z,30.30
2023-05-02T00:03:18.719Z,30.28
2023-05-02T00:05:45.955Z,30.52
2023-05-02T00:08:12.606Z,30.33
2023-05-02T00:10:39.320Z,30.31
2023-05-02T00:13:05.894Z,30.28
2023-05-02T00:15:32.754Z,30.36
2023-05-02T00:17:59.820Z,30.35
2023-05-02T00:20:26.761Z,30.29
2023-05-02T00:22:55.571Z,30.45
2023-05-02T00:25:22.297Z,30.30
2023-05-02T00:27:50.353Z,30.30
2023-05-02T00:30:17.741Z,30.38
2023-05-02T00:32:44.447Z,30.39
2023-05-02T00:35:11.247Z,30.36
2023-05-02T00:37:38.408Z,30.37
2023-05-02T00:40:07.403Z,30.41
2023-05-02T00:42:35.457Z,30.42
2023-05-02T00:45:04.047Z,30.36
2023-05-02T00:47:30.737Z,30.46
2023-05-02T00:49:58.811Z,30.29
2023-05-02T00:52:25.448Z,30.40
2023-05-02T00:54:52.283Z,30.31
2023-05-02T00:57:18.886Z,30.39
2023-05-02T00:59:46.647Z,30.26
2023-05-02T01:02:30.580Z,30.35
2023-05-02T01:05:05.858Z,30.38
2023-05-02T01:08:03.482Z,30.37
2023-05-02T01:10:38.469Z,30.33
2023-05-02T01:13:24.102Z,30.56
2023-05-02T01:15:51.224Z,30.22
2023-05-02T01:18:20.282Z,30.35
2023-05-02T01:20:46.891Z,30.44
2023-05-02T01:23:22.273Z,30.53
2023-05-02T01:26:06.924Z,30.25
2023-05-02T01:28:46.312Z,30.43
2023-05-02T01:31:13.107Z,30.30
2023-05-02T01:33:39.778Z,30.29
2023-05-02T01:36:06.924Z,30.24
2023-05-02T01:38:33.733Z,30.31
2023-05-02T01:41:04.806Z,30.33
2023-05-02T01:43:32.018Z,30.32
2023-05-02T01:45:58.800Z,30.36
2023-05-02T01:48:25.875Z,30.29
2023-05-02T01:50:52.480Z,30.29
2023-05-02T01:53:21.718Z,30.22
2023-05-02T01:55:48.348Z,30.30
2023-05-02T01:58:14.986Z,30.37
2023-05-02T02:00:44.450Z,30.16
2023-05-02T02:03:11.425Z,30.32
2023-05-02T02:05:38.301Z,30.30
2023-05-02T02:08:05.353Z,30.18
2023-05-02T02:10:36.126Z,30.18
2023-05-02T02:13:19.627Z,30.13
2023-05-02T02:15:48.483Z,30.14
2023-05-02T02:18:20.917Z,30.22
2023-05-02T02:20:48.164Z,30.30
2023-05-02T02:23:15.077Z,30.33
2023-05-02T02:25:42.198Z,30.26
2023-05-02T02:28:08.906Z,30.37
2023-05-02T02:30:35.493Z,30.27
2023-05-02T02:33:02.344Z,30.03
2023-05-02T02:35:32.853Z,30.22
2023-05-02T02:38:09.122Z,30.27
2023-05-02T02:40:53.638Z,30.28
2023-05-02T02:43:35.807Z,30.27
2023-05-02T02:46:07.397Z,30.16
2023-05-02T02:48:35.128Z,30.17
2023-05-02T02:51:01.753Z,30.15
2023-05-02T02:54:15.386Z,30.17
2023-05-02T02:56:52.116Z,30.24
2023-05-02T02:59:35.164Z,30.29
2023-05-02T03:02:05.684Z,30.14
2023-05-02T03:04:32.504Z,30.13
2023-05-02T03:06:59.881Z,30.12
2023-05-02T03:09:29.702Z,30.11
2023-05-02T03:11:57.103Z,30.06
2023-05-02T03:14:24.021Z,30.07
2023-05-02T03:16:51.234Z,29.94
2023-05-02T03:19:17.875Z,30.02
2023-05-02T03:21:44.805Z,30.12
2023-05-02T03:24:16.191Z,29.98
2023-05-02T03:26:44.634Z,30.10
2023-05-02T03:29:11.710Z,29.99
2023-05-02T03:31:43.031Z,30.08
2023-05-02T03:34:09.880Z,30.08
2023-05-02T03:36:37.070Z,29.84
2023-05-02T03:39:03.764Z,29.94
2023-05-02T03:41:30.730Z,29.93
2023-05-02T03:44:00.732Z,29.98
2023-05-02T03:46:27.694Z,29.90
2023-05-02T03:48:54.756Z,29.93
2023-05-02T03:51:21.466Z,29.71
2023-05-02T03:53:48.701Z,29.69
2023-05-02T03:56:21.598Z,29.76
2023-05-02T03:58:53.479Z,29.80
2023-05-02T04:01:20.331Z,29.67
2023-05-02T04:03:49.972Z,29.78
2023-05-02T04:06:17.768Z,29.68
2023-05-02T04:08:48.647Z,29.75
2023-05-02T04:11:15.928Z,29.57
2023-05-02T04:13:42.887Z,29.67
2023-05-02T04:16:09.448Z,29.77
2023-05-02T04:18:37.611Z,29.66
2023-05-02T04:21:08.405Z,29.58
2023-05-02T04:23:35.538Z,29.65
2023-05-02T04:26:03.013Z,29.52
2023-05-02T04:28:38.490Z,29.61
2023-05-02T04:31:05.360Z,29.59
2023-05-02T04:33:32.829Z,29.57
2023-05-02T04:36:00.123Z,29.54
2023-05-02T04:38:27.143Z,29.39
2023-05-02T04:40:53.892Z,29.32
2023-05-02T04:43:26.631Z,29.42
2023-05-02T04:45:59.626Z,29.40
2023-05-02T04:48:30.693Z,29.17
2023-05-02T04:50:57.301Z,29.17
2023-05-02T04:53:24.016Z,29.17
2023-05-02T04:55:50.800Z,29.04
2023-05-02T04:58:17.634Z,28.91
2023-05-02T05:00:47.766Z,29.04
2023-05-02T05:03:14.437Z,29.90
2023-05-02T05:05:41.058Z,30.20
2023-05-02T05:08:10.739Z,30.70
2023-05-02T05:10:39.761Z,30.71
2023-05-02T05:13:07.041Z,31.11
2023-05-02T05:15:34.001Z,31.35
2023-05-02T05:18:02.575Z,31.52
2023-05-02T05:20:29.618Z,31.71
2023-05-02T05:22:59.142Z,32.03
2023-05-02T05:25:29.481Z,32.05
2023-05-02T05:27:56.863Z,32.14
2023-05-02T05:30:24.546Z,32.54
2023-05-02T05:32:52.468Z,32.64
2023-05-02T05:35:19.021Z,32.69
2023-05-02T05:37:46.109Z,32.86
2023-05-02T05:40:16.477Z,32.88
2023-05-02T05:42:47.102Z,33.21
2023-05-02T05:45:20.543Z,33.22
2023-05-02T05:47:47.258Z,33.48
2023-05-02T05:50:14.545Z,33.61
2023-05-02T05:52:41.299Z,33.80
2023-05-02T05:55:09.458Z,33.73
2023-05-02T05:57:36.389Z,33.21
2023-05-02T06:00:03.562Z,33.04
2023-05-02T06:02:42.618Z,32.96
2023-05-02T06:05:15.246Z,33.23
2023-05-02T06:07:42.418Z,33.22
2023-05-02T06:10:10.463Z,33.49
2023-05-02T06:12:38.088Z,33.74
2023-05-02T06:15:06.361Z,33.80
2023-05-02T06:17:33.050Z,34.02
2023-05-02T06:20:00.329Z,34.02
2023-05-02T06:22:27.342Z,34.05
2023-05-02T06:24:53.865Z,34.14
2023-05-02T06:27:20.378Z,34.15
2023-05-02T06:29:46.980Z,34.23
2023-05-02T06:32:13.986Z,34.42
2023-05-02T06:34:40.722Z,34.45
2023-05-02T06:37:07.468Z,34.63
2023-05-02T06:39:34.126Z,34.63
2023-05-02T06:42:00.954Z,34.69
2023-05-02T06:44:28.531Z,34.61
2023-05-02T06:46:55.287Z,34.86
2023-05-02T06:49:22.482Z,34.96
2023-05-02T06:51:49.024Z,34.95
2023-05-02T06:54:16.059Z,34.91
2023-05-02T06:56:42.649Z,33.19
2023-05-02T06:59:09.687Z,31.95
2023-05-02T07:01:36.421Z,30.54
2023-05-02T07:04:06.182Z,30.25
2023-05-02T07:06:32.945Z,30.29
2023-05-02T07:09:00.117Z,30.71
2023-05-02T07:11:27.422Z,31.02
2023-05-02T07:13:54.187Z,31.10
2023-05-02T07:16:21.247Z,30.94
2023-05-02T07:18:47.951Z,31.07
2023-05-02T07:21:14.644Z,31.11
2023-05-02T07:23:41.406Z,31.20
2023-05-02T07:26:08.421Z,31.26
2023-05-02T07:28:35.210Z,31.45
2023-05-02T07:31:01.856Z,31.41
2023-05-02T07:33:28.600Z,31.42
2023-05-02T07:35:55.355Z,31.22
2023-05-02T07:38:22.112Z,30.79
2023-05-02T07:40:48.711Z,30.77
2023-05-02T07:43:15.703Z,30.83
2023-05-02T07:45:42.336Z,30.47
2023-05-02T07:48:09.247Z,30.58
2023-05-02T07:50:36.436Z,30.55
2023-05-02T07:53:03.298Z,30.61
2023-05-02T07:55:30.852Z,30.41
2023-05-02T07:57:57.982Z,30.20
2023-05-02T08:00:24.848Z,29.54
2023-05-02T08:02:51.752Z,29.18
2023-05-02T08:05:18.599Z,29.15
2023-05-02T08:07:46.605Z,29.59
2023-05-02T08:10:13.182Z,29.85
2023-05-02T08:12:40.718Z,30.26
2023-05-02T08:15:08.293Z,30.35
2023-05-02T08:17:34.906Z,30.58
2023-05-02T08:20:01.752Z,30.83
2023-05-02T08:22:28.715Z,30.76
2023-05-02T08:24:55.497Z,30.70
2023-05-02T08:27:22.040Z,30.85
2023-05-02T08:29:48.821Z,30.75
2023-05-02T08:32:15.516Z,30.67
2023-05-02T08:34:42.449Z,30.42
2023-05-02T08:37:09.798Z,30.11
2023-05-02T08:39:36.424Z,29.93
2023-05-02T08:42:07.500Z,29.82
2023-05-02T08:44:34.173Z,29.67
2023-05-02T08:47:00.730Z,29.71
2023-05-02T08:49:27.502Z,29.85
2023-05-02T08:51:54.772Z,29.71
2023-05-02T08:54:21.815Z,29.23
2023-05-02T08:56:48.378Z,28.52
2023-05-02T08:59:15.352Z,28.14
2023-05-02T09:01:42.574Z,28.63
2023-05-02T09:04:09.536Z,28.79
2023-05-02T09:06:36.263Z,29.17
2023-05-02T09:09:03.259Z,29.49
2023-05-02T09:11:30.039Z,30.11
2023-05-02T09:13:58.448Z,30.04
2023-05-02T09:16:26.327Z,29.27
2023-05-02T09:18:54.328Z,28.87
2023-05-02T09:21:21.703Z,28.82
2023-05-02T09:23:55.151Z,28.43
2023-05-02T09:26:22.983Z,28.44
2023-05-02T09:28:56.013Z,28.37
2023-05-02T09:31:43.483Z,28.25
2023-05-02T09:34:13.447Z,28.02
2023-05-02T09:36:41.407Z,28.13
2023-05-02T09:39:13.041Z,28.91
2023-05-02T09:41:43.714Z,29.03
2023-05-02T09:44:11.757Z,29.47
2023-05-02T09:46:42.201Z,29.68
2023-05-02T09:49:12.000Z,29.75
2023-05-02T09:51:38.659Z,30.02
2023-05-02T09:54:05.261Z,29.80
2023-05-02T09:56:32.034Z,30.06
2023-05-02T09:59:13.059Z,29.90
2023-05-02T10:01:41.023Z,28.81
2023-05-02T10:04:15.718Z,28.78
2023-05-02T10:06:43.503Z,29.20
2023-05-02T10:09:11.445Z,31.15
2023-05-02T10:11:38.822Z,32.19
2023-05-02T10:14:07.948Z,32.17
2023-05-02T10:16:34.643Z,31.74
2023-05-02T10:19:09.130Z,31.34
2023-05-02T10:21:36.210Z,31.73
2023-05-02T10:24:03.637Z,31.57
2023-05-02T10:26:31.131Z,31.58
2023-05-02T10:28:57.659Z,31.72
2023-05-02T10:31:24.427Z,31.66
2023-05-02T10:33:51.856Z,31.30
2023-05-02T10:36:22.223Z,31.14
2023-05-02T10:38:49.182Z,31.39
2023-05-02T10:41:18.673Z,31.37
2023-05-02T10:43:46.634Z,31.33
2023-05-02T10:46:35.677Z,31.35
2023-05-02T10:49:11.604Z,31.53
2023-05-02T10:51:41.967Z,31.91
2023-05-02T10:54:21.922Z,31.49
2023-05-02T10:57:02.758Z,31.36
2023-05-02T10:59:30.695Z,31.20
2023-05-02T11:01:57.535Z,31.27
2023-05-02T11:04:24.343Z,31.08
2023-05-02T11:06:58.621Z,31.04
2023-05-02T11:09:26.027Z,31.40
2023-05-02T11:11:56.906Z,31.02
2023-05-02T11:14:26.804Z,30.52
2023-05-02T11:17:05.781Z,30.76
2023-05-02T11:19:38.606Z,31.54
2023-05-02T11:22:17.134Z,31.82
2023-05-02T11:24:44.495Z,32.30
2023-05-02T11:27:32.964Z,32.71
2023-05-02T11:30:00.496Z,33.00
2023-05-02T11:32:45.568Z,33.31
2023-05-02T11:35:22.899Z,33.87
2023-05-02T11:38:09.162Z,33.83
2023-05-02T11:40:35.880Z,34.16
2023-05-02T11:43:15.065Z,34.03
2023-05-02T11:45:44.944Z,34.08
2023-05-02T11:48:13.082Z,34.12
2023-05-02T11:50:50.104Z,34.33
2023-05-02T11:53:24.886Z,34.53
2023-05-02T11:55:58.362Z,34.25
2023-05-02T11:58:26.944Z,33.88
2023-05-02T12:00:53.538Z,33.85
2023-05-02T12:03:38.342Z,33.89
2023-05-02T12:06:10.630Z,33.79
2023-05-02T12:08:37.452Z,33.51
2023-05-02T12:11:04.145Z,33.11
2023-05-02T12:13:30.844Z,33.08
2023-05-02T12:15:57.780Z,33.14
2023-05-02T12:18:24.738Z,33.17
2023-05-02T12:20:51.969Z,33.35
2023-05-02T12:23:23.708Z,33.21
2023-05-02T12:25:50.347Z,33.11
2023-05-02T12:28:17.829Z,32.81
2023-05-02T12:30:47.255Z,32.56
2023-05-02T12:33:14.228Z,32.51
2023-05-02T12:35:40.764Z,32.52
2023-05-02T12:38:11.378Z,32.15
2023-05-02T12:40:39.334Z,32.01
2023-05-02T12:43:10.255Z,31.94
2023-05-02T12:45:36.935Z,31.83
2023-05-02T12:48:26.236Z,31.68
2023-05-02T12:50:54.170Z,31.51
2023-05-02T12:53:43.141Z,31.39
2023-05-02T12:56:10.173Z,31.29
2023-05-02T12:58:44.214Z,31.11
2023-05-02T13:01:11.312Z,30.87
2023-05-02T13:03:38.048Z,30.64
2023-05-02T13:06:05.498Z,30.45
2023-05-02T13:08:33.560Z,30.51
2023-05-02T13:11:01.154Z,30.19
2023-05-02T13:13:27.709Z,30.14
2023-05-02T13:15:54.462Z,30.08
2023-05-02T13:18:21.185Z,29.99
2023-05-02T13:20:47.858Z,29.80
2023-05-02T13:23:16.286Z,29.68
2023-05-02T13:25:42.854Z,29.56
2023-05-02T13:28:09.800Z,29.43
2023-05-02T13:30:36.341Z,29.47
2023-05-02T13:33:03.054Z,29.28
2023-05-02T13:35:29.765Z,29.35
2023-05-02T13:37:56.392Z,29.06
2023-05-02T13:40:23.594Z,29.12
2023-05-02T13:42:50.679Z,29.01
2023-05-02T13:45:17.334Z,28.99
2023-05-02T13:47:43.911Z,28.81
2023-05-02T13:50:10.956Z,28.84
2023-05-02T13:52:37.611Z,28.67
2023-05-02T13:55:05.293Z,28.55
2023-05-02T13:57:32.113Z,28.47
2023-05-02T13:59:58.811Z,28.46
2023-05-02T14:02:25.635Z,28.33
2023-05-02T14:04:52.931Z,28.38
2023-05-02T14:07:19.499Z,28.13
2023-05-02T14:09:46.151Z,28.17
2023-05-02T14:12:12.726Z,28.11
2023-05-02T14:14:39.928Z,28.08
2023-05-02T14:17:06.638Z,28.07
2023-05-02T14:19:33.246Z,27.91
2023-05-02T14:21:59.956Z,27.89
2023-05-02T14:24:26.694Z,27.78
2023-05-02T14:26:53.193Z,27.79
2023-05-02T14:29:19.933Z,27.69
2023-05-02T14:31:47.080Z,27.54
2023-05-02T14:34:14.024Z,27.64
2023-05-02T14:36:40.655Z,27.53
2023-05-02T14:39:07.387Z,27.57
2023-05-02T14:41:33.925Z,27.47
2023-05-02T14:44:00.530Z,27.43
2023-05-02T14:46:27.674Z,27.56
2023-05-02T14:48:54.413Z,27.41
2023-05-02T14:51:20.918Z,27.32
2023-05-02T14:53:48.807Z,27.48
2023-05-02T14:56:16.716Z,27.34
2023-05-02T14:58:43.711Z,27.28
2023-05-02T15:01:21.553Z,27.37
2023-05-02T15:04:05.304Z,27.26
2023-05-02T15:06:35.466Z,27.29
2023-05-02T15:09:02.767Z,27.28
2023-05-02T15:11:29.946Z,27.55
2023-05-02T15:13:59.277Z,27.32
2023-05-02T15:16:26.416Z,27.37
2023-05-02T15:18:54.097Z,27.59
2023-05-02T15:21:21.025Z,27.49
2023-05-02T15:23:47.669Z,27.28
2023-05-02T15:26:14.253Z,27.34
2023-05-02T15:28:41.130Z,27.36
2023-05-02T15:31:08.040Z,27.42
2023-05-02T15:33:34.876Z,27.49
2023-05-02T15:36:01.948Z,27.34
2023-05-02T15:38:28.585Z,27.50
2023-05-02T15:40:59.150Z,27.48
2023-05-02T15:43:26.319Z,27.39
2023-05-02T15:45:56.413Z,27.50
2023-05-02T15:48:23.609Z,27.55
2023-05-02T15:50:51.863Z,27.52
2023-05-02T15:53:19.097Z,27.53
2023-05-02T15:55:45.815Z,27.59
2023-05-02T15:58:12.723Z,27.73
2023-05-02T16:00:39.370Z,27.69
2023-05-02T16:03:06.053Z,27.71
2023-05-02T16:05:32.735Z,27.86
2023-05-02T16:07:59.708Z,27.88
2023-05-02T16:10:26.693Z,27.75
2023-05-02T16:12:53.754Z,27.87
2023-05-02T16:15:20.644Z,27.91
2023-05-02T16:17:51.128Z,27.93
2023-05-02T16:20:18.055Z,27.95
2023-05-02T16:22:45.811Z,28.21
2023-05-02T16:25:12.978Z,28.12
2023-05-02T16:27:39.642Z,28.09
2023-05-02T16:30:09.153Z,28.23
2023-05-02T16:32:36.724Z,28.53
2023-05-02T16:35:06.454Z,28.67
2023-05-02T16:37:34.338Z,28.79
2023-05-02T16:40:04.665Z,28.95
2023-05-02T16:42:31.636Z,28.96
2023-05-02T16:44:58.149Z,29.20
2023-05-02T16:47:26.367Z,29.15
2023-05-02T16:49:56.625Z,29.22
2023-05-02T16:52:23.497Z,29.49
2023-05-02T16:54:50.547Z,29.58
2023-05-02T16:57:18.948Z,29.57
2023-05-02T16:59:46.896Z,29.62
2023-05-02T17:02:13.801Z,29.84
2023-05-02T17:04:41.832Z,29.73
2023-05-02T17:07:08.752Z,29.89
2023-05-02T17:09:36.851Z,29.89
2023-05-02T17:12:06.857Z,30.06
2023-05-02T17:14:33.567Z,29.98
2023-05-02T17:17:00.818Z,30.15
2023-05-02T17:19:27.547Z,30.27
2023-05-02T17:21:54.108Z,30.17
2023-05-02T17:24:20.969Z,30.25
2023-05-02T17:26:47.916Z,30.22
2023-05-02T17:29:14.687Z,30.31
2023-05-02T17:31:41.269Z,30.44
2023-05-02T17:34:08.095Z,30.36
2023-05-02T17:36:35.730Z,30.39
2023-05-02T17:39:03.663Z,30.54
2023-05-02T17:41:30.814Z,30.27
2023-05-02T17:43:57.650Z,30.65
2023-05-02T17:46:24.220Z,30.44
2023-05-02T17:48:51.396Z,30.61
2023-05-02T17:51:18.120Z,30.60
2023-05-02T17:53:45.145Z,30.66
2023-05-02T17:56:13.635Z,30.66
2023-05-02T17:58:40.171Z,30.57
2023-05-02T18:01:07.798Z,30.63
2023-05-02T18:03:34.883Z,30.58
2023-05-02T18:06:01.650Z,30.78
2023-05-02T18:08:30.632Z,30.71
2023-05-02T18:11:00.417Z,30.59
2023-05-02T18:13:27.124Z,30.63
2023-05-02T18:15:57.792Z,30.75
2023-05-02T18:18:24.669Z,30.72
2023-05-02T18:20:51.509Z,30.77
2023-05-02T18:23:18.425Z,30.73
2023-05-02T18:25:45.005Z,30.81
2023-05-02T18:28:12.759Z,30.72
2023-05-02T18:30:39.804Z,30.78
2023-05-02T18:33:06.928Z,30.76
2023-05-02T18:35:33.527Z,30.88
2023-05-02T18:38:00.351Z,30.79
2023-05-02T18:40:26.976Z,30.73
2023-05-02T18:42:54.201Z,30.83
2023-05-02T18:45:21.227Z,30.92
2023-05-02T18:47:50.303Z,30.81
2023-05-02T18:50:17.482Z,30.81
2023-05-02T18:52:44.219Z,30.79
2023-05-02T18:55:11.620Z,30.86
2023-05-02T18:57:38.320Z,30.82
2023-05-02T19:00:06.672Z,30.69
2023-05-02T19:02:33.492Z,30.68
2023-05-02T19:05:00.975Z,30.86
2023-05-02T19:07:27.784Z,30.82
2023-05-02T19:09:54.367Z,30.88
2023-05-02T19:12:21.135Z,30.84
2023-05-02T19:14:49.811Z,30.94
2023-05-02T19:17:16.503Z,30.85
2023-05-02T19:19:45.464Z,30.87
2023-05-02T19:22:14.170Z,30.83
2023-05-02T19:24:41.112Z,30.85
2023-05-02T19:27:07.854Z,30.99
2023-05-02T19:29:34.351Z,30.87
2023-05-02T19:32:01.314Z,30.78
2023-05-02T19:34:28.283Z,30.85
2023-05-02T19:36:54.887Z,30.84
2023-05-02T19:39:21.502Z,30.92
2023-05-02T19:41:49.367Z,30.80
2023-05-02T19:44:17.429Z,30.91
2023-05-02T19:46:44.074Z,30.95
2023-05-02T19:49:10.831Z,30.97
2023-05-02T19:51:37.438Z,30.88
2023-05-02T19:54:04.049Z,30.93
2023-05-02T19:56:30.795Z,30.86
2023-05-02T19:58:58.050Z,30.96
2023-05-02T20:01:26.585Z,30.90
2023-05-02T20:03:54.376Z,30.85
2023-05-02T20:06:21.126Z,30.97
2023-05-02T20:08:47.971Z,30.93
2023-05-02T20:11:15.004Z,30.98
2023-05-02T20:13:41.679Z,30.86
2023-05-02T20:16:09.710Z,30.90
2023-05-02T20:18:36.523Z,30.93
2023-05-02T20:21:03.424Z,30.92
2023-05-02T20:23:30.259Z,30.90
2023-05-02T20:25:56.850Z,30.96
2023-05-02T20:28:24.286Z,30.83
2023-05-02T20:30:51.164Z,30.78
2023-05-02T20:33:18.356Z,30.95
2023-05-02T20:35:45.146Z,30.82
2023-05-02T20:38:11.853Z,30.80
2023-05-02T20:40:39.294Z,30.82
2023-05-02T20:43:06.035Z,31.05
2023-05-02T20:45:32.848Z,30.86
2023-05-02T20:47:59.463Z,30.93
2023-05-02T20:50:26.532Z,30.87
2023-05-02T20:52:53.796Z,30.87
2023-05-02T20:55:22.289Z,30.86
2023-05-02T20:57:52.273Z,30.71
2023-05-02T21:00:21.807Z,30.81
2023-05-02T21:02:48.891Z,30.68
2023-05-02T21:05:15.503Z,30.97
2023-05-02T21:07:42.026Z,30.80
2023-05-02T21:10:09.340Z,31.00
2023-05-02T21:12:36.095Z,30.82
2023-05-02T21:15:02.762Z,31.05
2023-05-02T21:17:29.292Z,30.84
2023-05-02T21:19:56.095Z,30.92
2023-05-02T21:22:22.826Z,30.76
2023-05-02T21:24:49.622Z,30.72
2023-05-02T21:27:16.217Z,30.92
2023-05-02T21:29:42.809Z,30.97
2023-05-02T21:32:09.387Z,30.78
2023-05-02T21:34:36.327Z,30.82
2023-05-02T21:37:03.358Z,30.94
2023-05-02T21:39:30.046Z,30.77
2023-05-02T21:41:56.803Z,30.92
2023-05-02T21:44:24.194Z,30.83
2023-05-02T21:46:50.910Z,30.65
2023-05-02T21:49:17.535Z,30.81
2023-05-02T21:51:44.253Z,30.85
2023-05-02T21:54:10.974Z,30.68
2023-05-02T21:56:37.953Z,30.83
2023-05-02T21:59:04.995Z,30.87
2023-05-02T22:01:31.637Z,30.82
2023-05-02T22:03:58.282Z,30.81
2023-05-02T22:06:25.601Z,30.85
2023-05-02T22:08:52.218Z,30.80
2023-05-02T22:11:21.045Z,30.73
2023-05-02T22:13:47.827Z,30.86
2023-05-02T22:16:14.611Z,30.71
2023-05-02T22:18:43.918Z,30.92
2023-05-02T22:21:11.402Z,30.79
2023-05-02T22:23:37.976Z,30.83
2023-05-02T22:26:04.566Z,30.78
2023-05-02T22:28:31.100Z,30.78
2023-05-02T22:30:57.810Z,30.82
2023-05-02T22:33:24.466Z,30.84
2023-05-02T22:35:51.152Z,30.67
2023-05-02T22:38:18.918Z,30.71
2023-05-02T22:40:45.848Z,30.89
2023-05-02T22:43:12.740Z,30.83
2023-05-02T22:45:39.841Z,30.74
2023-05-02T22:48:07.141Z,30.73
2023-05-02T22:50:33.971Z,30.82
2023-05-02T22:53:03.020Z,30.81
2023-05-02T22:55:29.710Z,30.73
2023-05-02T22:57:56.252Z,30.77
2023-05-02T23:00:23.155Z,30.73
2023-05-02T23:02:49.875Z,30.80
2023-05-02T23:05:16.698Z,30.86
2023-05-02T23:07:43.375Z,30.82
2023-05-02T23:10:10.095Z,30.82
2023-05-02T23:12:37.732Z,30.87
2023-05-02T23:15:04.976Z,30.75
2023-05-02T23:17:31.657Z,30.76
2023-05-02T23:19:58.285Z,30.76
2023-05-02T23:22:24.886Z,30.95
2023-05-02T23:24:51.814Z,30.73
2023-05-02T23:27:18.329Z,30.81
2023-05-02T23:29:48.294Z,30.70
2023-05-02T23:32:15.620Z,30.70
2023-05-02T23:34:42.604Z,30.74
2023-05-02T23:37:10.080Z,30.83
2023-05-02T23:39:37.126Z,30.72
2023-05-02T23:42:03.924Z,30.77
2023-05-02T23:44:30.747Z,30.69
2023-05-02T23:46:58.672Z,30.73
2023-05-02T23:49:25.922Z,30.68
2023-05-02T23:51:52.508Z,30.69
2023-05-02T23:54:19.473Z,30.68
2023-05-02T23:56:46.374Z,30.67
2023-05-02T23:59:14.443Z,30.73
